Time;durP1;ratioP1;P1;durP2;ratioP2;P2;SDS_P1;SDS_P2;PMS_P1;PMS_P2;Temp;Humidity;BMP_temperature;BMP_pressure;BME280_temperature;BME280_humidity;BME280_pressure;Samples;Min_cycle;Max_cycle;Signal;HPM_P1;HPM_P2
2022/05/17 00:01:55;;;;;;;6.70;6.30;;;;;;;20.37;80.25;99643.47;5011279;28;20191;-62
2022/05/17 00:04:24;;;;;;;8.00;7.13;;;;;;;20.30;80.49;99640.44;5026826;28;20666;-62
2022/05/17 00:06:51;;;;;;;6.70;6.30;;;;;;;20.25;80.88;99626.88;5030754;28;20193;-62
2022/05/17 00:09:18;;;;;;;7.70;7.17;;;;;;;20.23;80.70;99633.09;5030351;28;20204;-62
2022/05/17 00:11:45;;;;;;;6.87;6.47;;;;;;;20.19;80.91;99623.84;5032902;28;20207;-62
2022/05/17 00:14:12;;;;;;;6.73;6.33;;;;;;;20.18;81.07;99624.78;5020411;28;20202;-61
2022/05/17 00:16:40;;;;;;;7.40;7.00;;;;;;;20.02;81.49;99613.69;5014543;28;20251;-62
2022/05/17 00:19:08;;;;;;;7.77;7.27;;;;;;;20.06;81.29;99625.59;5014478;28;20663;-62
2022/05/17 00:21:37;;;;;;;6.63;6.33;;;;;;;20.00;81.01;99631.19;5014618;28;20225;-62
2022/05/17 00:24:06;;;;;;;7.27;6.67;;;;;;;19.95;81.27;99628.88;5014303;28;20194;-62
2022/05/17 00:26:34;;;;;;;7.47;6.77;;;;;;;19.91;81.67;99623.03;5014450;28;20202;-62
2022/05/17 00:29:02;;;;;;;7.20;6.80;;;;;;;19.83;82.27;99619.28;5014311;28;20202;-62
2022/05/17 00:31:29;;;;;;;6.93;6.63;;;;;;;19.76;82.36;99623.19;5014352;28;20202;-62
2022/05/17 00:33:56;;;;;;;8.70;7.43;;;;;;;19.74;82.84;99625.06;5014209;28;20202;-62
2022/05/17 00:36:24;;;;;;;7.17;6.77;;;;;;;19.65;83.08;99616.06;5013660;28;20304;-62
2022/05/17 00:38:52;;;;;;;8.37;7.87;;;;;;;19.51;84.15;99618.72;5013250;28;20551;-62
2022/05/17 00:41:19;;;;;;;9.30;7.47;;;;;;;19.38;84.81;99628.19;5013458;28;20234;-62
2022/05/17 00:46:39;;;;;;;7.23;6.77;;;;;;;19.23;86.05;99631.72;5014167;28;20193;-62
2022/05/17 00:49:10;;;;;;;7.87;7.47;;;;;;;19.23;86.04;99629.13;5014119;28;20204;-62
2022/05/17 00:51:40;;;;;;;7.07;6.67;;;;;;;19.23;86.34;99623.94;5013849;28;20194;-62
2022/05/17 00:54:12;;;;;;;7.37;6.97;;;;;;;19.20;86.61;99619.75;5013800;28;20202;-62
2022/05/17 00:56:42;;;;;;;7.77;7.37;;;;;;;19.19;86.86;99614.69;5021823;28;20233;-62
2022/05/17 00:59:10;;;;;;;7.47;7.00;;;;;;;19.17;87.29;99613.91;5013746;28;20198;-62
2022/05/17 01:01:38;;;;;;;8.67;8.00;;;;;;;19.05;87.02;99604.28;5013944;28;20202;-62
2022/05/17 01:04:09;;;;;;;8.23;7.73;;;;;;;19.07;87.03;99618.00;5013522;28;20305;-62
2022/05/17 01:06:42;;;;;;;8.00;7.50;;;;;;;18.91;85.81;99628.50;5013388;28;20551;-62
2022/05/17 01:09:11;;;;;;;7.73;7.13;;;;;;;18.87;86.20;99616.63;5013404;28;20662;-62
2022/05/17 01:11:38;;;;;;;8.27;7.77;;;;;;;18.85;86.78;99618.50;5013647;28;20205;-62
2022/05/17 01:16:48;;;;;;;8.20;7.80;;;;;;;18.77;87.55;99612.94;4992688;28;20225;-62
2022/05/17 01:19:15;;;;;;;8.97;8.37;;;;;;;18.69;87.89;99617.75;5013286;28;20198;-62
2022/05/17 01:21:44;;;;;;;7.30;7.00;;;;;;;18.59;88.23;99614.03;5012796;28;20210;-61
2022/05/17 01:24:11;;;;;;;7.53;7.13;;;;;;;18.49;88.38;99611.09;5012887;28;20208;-62
2022/05/17 01:26:42;;;;;;;7.70;7.30;;;;;;;18.42;89.09;99603.78;5013433;28;20203;-62
2022/05/17 01:29:09;;;;;;;6.77;6.43;;;;;;;18.45;89.69;99603.59;5011203;28;20224;-62
2022/05/17 01:31:38;;;;;;;8.13;7.53;;;;;;;18.42;90.10;99599.41;5008200;28;20206;-62
2022/05/17 01:34:07;;;;;;;8.03;7.43;;;;;;;18.43;90.58;99590.69;5011813;28;20198;-62
2022/05/17 01:36:34;;;;;;;8.20;7.10;;;;;;;18.50;91.11;99599.84;5012273;28;20300;-62
2022/05/17 01:39:04;;;;;;;7.47;7.07;;;;;;;18.45;91.60;99593.22;5012645;28;20209;-62
2022/05/17 01:41:31;;;;;;;7.00;6.60;;;;;;;18.47;92.33;99593.94;5011838;28;20590;-62
2022/05/17 01:43:59;;;;;;;7.60;7.10;;;;;;;18.50;92.97;99601.59;5013019;28;20213;-61
2022/05/17 01:46:26;;;;;;;7.73;7.13;;;;;;;18.46;93.16;99595.72;5012086;28;20198;-62
2022/05/17 01:48:53;;;;;;;7.37;6.93;;;;;;;18.43;93.32;99595.88;5010834;28;20209;-62
2022/05/17 01:51:21;;;;;;;7.30;6.90;;;;;;;18.43;93.03;99597.66;5010803;28;20190;-62
2022/05/17 01:53:48;;;;;;;7.27;6.87;;;;;;;18.44;93.16;99587.19;5011212;28;20205;-62
2022/05/17 01:56:17;;;;;;;7.27;6.87;;;;;;;18.40;93.27;99575.31;5010857;28;20226;-62
2022/05/17 01:58:44;;;;;;;7.40;6.90;;;;;;;18.48;93.01;99578.25;5011442;28;20205;-62
2022/05/17 02:01:12;;;;;;;6.90;6.60;;;;;;;18.48;93.08;99578.25;5010771;28;20213;-62
2022/05/17 02:03:39;;;;;;;6.67;6.33;;;;;;;18.49;93.17;99573.91;5028981;28;20197;-62
2022/05/17 02:06:06;;;;;;;7.87;7.47;;;;;;;18.42;93.15;99573.44;5012912;28;20201;-62
2022/05/17 02:08:34;;;;;;;8.03;7.43;;;;;;;18.44;93.38;99587.19;5012440;28;20206;-62
2022/05/17 02:11:01;;;;;;;7.00;6.57;;;;;;;18.43;93.57;99584.66;5012672;28;20205;-62
2022/05/17 02:13:29;;;;;;;8.03;7.43;;;;;;;18.40;93.44;99580.50;5022157;28;20331;-62
2022/05/17 02:15:56;;;;;;;7.40;6.90;;;;;;;18.37;93.49;99585.88;5032518;28;20284;-62
2022/05/17 02:18:23;;;;;;;7.07;6.67;;;;;;;18.33;93.44;99584.38;5032192;28;20194;-62
2022/05/17 02:20:50;;;;;;;6.60;6.20;;;;;;;18.27;93.32;99579.53;5032130;28;20291;-62
2022/05/17 02:23:17;;;;;;;7.63;7.23;;;;;;;18.19;93.38;99579.19;5032089;28;20202;-62
2022/05/17 02:25:44;;;;;;;7.60;7.13;;;;;;;18.06;93.69;99578.22;5031954;28;20201;-62
2022/05/17 02:28:11;;;;;;;7.13;6.73;;;;;;;17.95;94.03;99572.78;5031808;28;20200;-62
2022/05/17 02:30:43;;;;;;;7.17;6.77;;;;;;;17.71;94.13;99549.94;5032115;28;20197;-62
2022/05/17 02:33:11;;;;;;;7.17;6.87;;;;;;;17.74;94.14;99565.31;5017495;28;20209;-62
2022/05/17 02:35:38;;;;;;;7.83;7.27;;;;;;;17.60;94.25;99572.22;5011923;28;20217;-62
2022/05/17 02:38:05;;;;;;;8.83;6.97;;;;;;;17.59;94.35;99565.34;5011213;28;20222;-62
2022/05/17 02:40:33;;;;;;;8.17;7.77;;;;;;;17.51;94.41;99568.31;5011900;28;20197;-62
2022/05/17 02:43:00;;;;;;;7.43;6.93;;;;;;;17.47;94.57;99576.38;5011959;28;20293;-62
2022/05/17 02:45:27;;;;;;;8.20;7.77;;;;;;;17.41;95.07;99569.78;5011837;28;20201;-62
2022/05/17 02:47:55;;;;;;;7.37;7.07;;;;;;;17.36;95.42;99584.72;5011806;28;20199;-62
2022/05/17 02:50:22;;;;;;;7.20;6.80;;;;;;;17.15;95.83;99563.44;5011843;28;20194;-62
2022/05/17 02:52:49;;;;;;;7.43;7.13;;;;;;;17.26;95.98;99588.75;5011955;28;20201;-62
2022/05/17 02:55:17;;;;;;;7.40;7.00;;;;;;;17.22;96.44;99582.06;5011778;28;20225;-62
2022/05/17 02:57:44;;;;;;;7.93;7.33;;;;;;;17.11;97.11;99559.34;5011332;28;20230;-62
2022/05/17 03:00:16;;;;;;;10.57;7.87;;;;;;;17.23;97.55;99578.53;5011822;28;20197;-62
2022/05/17 03:02:43;;;;;;;7.67;7.27;;;;;;;17.19;97.79;99571.84;5011516;28;20205;-62
2022/05/17 03:05:13;;;;;;;8.40;7.80;;;;;;;17.26;98.36;99583.56;5011484;28;20191;-62
2022/05/17 03:07:40;;;;;;;7.73;7.33;;;;;;;17.22;99.79;99582.88;5011448;28;20201;-62
2022/05/17 03:10:09;;;;;;;9.97;9.23;;;;;;;17.15;100.00;99580.72;5011968;28;20685;-62
2022/05/17 03:12:36;;;;;;;8.87;8.37;;;;;;;16.99;100.00;99569.53;5011396;28;20207;-62
2022/05/17 03:15:03;;;;;;;8.50;8.00;;;;;;;17.06;100.00;99581.22;5011560;28;20578;-62
2022/05/17 03:17:30;;;;;;;8.57;8.07;;;;;;;16.99;100.00;99579.88;5011360;28;20221;-62
2022/05/17 03:19:57;;;;;;;8.80;8.20;;;;;;;17.01;100.00;99590.97;5011378;28;20570;-62
2022/05/17 03:22:25;;;;;;;7.97;7.43;;;;;;;16.99;100.00;99585.06;5011346;28;20301;-62
2022/05/17 03:24:52;;;;;;;8.50;7.97;;;;;;;17.00;100.00;99586.72;5010961;28;20203;-62
2022/05/17 03:27:20;;;;;;;9.20;8.60;;;;;;;17.01;100.00;99589.22;5022525;28;20189;-62
2022/05/17 03:29:47;;;;;;;8.90;8.20;;;;;;;16.95;100.00;99568.00;5022421;28;20709;-62
2022/05/17 03:32:14;;;;;;;7.57;7.17;;;;;;;17.09;100.00;99586.25;5012027;28;20556;-62
2022/05/17 03:34:41;;;;;;;8.77;8.27;;;;;;;17.19;100.00;99588.22;5017304;28;20210;-61
2022/05/17 03:37:08;;;;;;;10.27;8.50;;;;;;;17.30;100.00;99595.44;5009234;28;20220;-62
2022/05/17 03:39:37;;;;;;;8.20;7.60;;;;;;;17.42;100.00;99599.09;5009104;28;20198;-62
2022/05/17 03:42:04;;;;;;;8.60;7.97;;;;;;;17.45;100.00;99583.41;5009995;28;20579;-62
2022/05/17 03:44:31;;;;;;;8.40;7.90;;;;;;;17.69;99.94;99590.69;5010522;28;20198;-62
2022/05/17 03:46:58;;;;;;;7.87;7.37;;;;;;;17.77;99.07;99591.06;5009730;28;20204;-62
2022/05/17 03:49:24;;;;;;;7.83;7.43;;;;;;;17.86;98.56;99594.91;5018768;28;20885;-62
2022/05/17 03:51:51;;;;;;;8.57;8.00;;;;;;;17.99;98.59;99590.69;5010789;28;20575;-62
2022/05/17 03:54:21;;;;;;;9.27;8.57;;;;;;;18.10;97.80;99593.50;5010802;28;20256;-62
2022/05/17 03:56:50;;;;;;;8.87;8.17;;;;;;;18.33;97.25;99602.53;5010876;28;20689;-62
2022/05/17 03:59:17;;;;;;;8.53;8.10;;;;;;;18.43;97.17;99585.50;5010201;28;20194;-62
2022/05/17 04:01:44;;;;;;;7.93;7.33;;;;;;;18.73;95.59;99607.09;5010206;28;20213;-62
2022/05/17 04:04:11;;;;;;;8.83;8.00;;;;;;;18.93;95.24;99610.25;5010686;28;20202;-62
2022/05/17 04:06:38;;;;;;;7.53;6.83;;;;;;;19.12;93.69;99605.59;5011011;28;20209;-62
2022/05/17 04:09:05;;;;;;;8.97;7.60;;;;;;;19.30;93.13;99596.63;5010754;28;20198;-62
2022/05/17 04:11:32;;;;;;;8.00;7.40;;;;;;;19.45;91.77;99603.50;5010814;28;20306;-62
2022/05/17 04:14:00;;;;;;;7.50;6.90;;;;;;;19.69;90.38;99614.94;5010719;28;20198;-62
2022/05/17 04:16:32;;;;;;;7.80;7.30;;;;;;;19.87;89.32;99611.16;5010523;28;20208;-63
2022/05/17 04:18:58;;;;;;;7.83;7.33;;;;;;;20.02;88.25;99608.50;5010624;28;20209;-63
2022/05/17 04:21:26;;;;;;;15.80;7.53;;;;;;;20.29;87.57;99611.94;5017901;28;20711;-59
2022/05/17 04:23:53;;;;;;;6.77;6.47;;;;;;;20.51;85.84;99601.75;5010534;28;20209;-59
2022/05/17 04:26:20;;;;;;;6.70;6.40;;;;;;;20.77;85.03;99606.00;5010543;28;20269;-59
2022/05/17 04:28:47;;;;;;;7.17;6.77;;;;;;;21.03;82.89;99605.97;5010082;28;20581;-59
2022/05/17 04:31:16;;;;;;;6.17;5.77;;;;;;;21.30;80.68;99611.88;5010268;28;20607;-60
2022/05/17 04:33:44;;;;;;;7.10;6.60;;;;;;;21.49;79.40;99611.44;5009779;28;20206;-60
2022/05/17 04:36:11;;;;;;;6.60;6.20;;;;;;;21.67;78.20;99617.91;5010509;28;20202;-60
2022/05/17 04:38:38;;;;;;;7.30;6.80;;;;;;;21.77;76.95;99624.97;5010387;28;20222;-59
2022/05/17 04:41:05;;;;;;;7.23;6.70;;;;;;;21.84;76.72;99620.16;5010315;28;20196;-60
2022/05/17 04:43:32;;;;;;;6.63;6.20;;;;;;;21.97;76.13;99613.94;5010806;28;20202;-60
2022/05/17 04:45:59;;;;;;;6.33;6.03;;;;;;;22.10;75.51;99613.84;5024355;28;20201;-60
2022/05/17 04:48:27;;;;;;;6.97;6.47;;;;;;;22.25;74.18;99617.13;5010627;28;20196;-59
2022/05/17 04:50:54;;;;;;;5.93;5.63;;;;;;;22.44;74.62;99613.00;5006745;28;20208;-59
2022/05/17 04:53:21;;;;;;;7.03;6.40;;;;;;;22.55;73.05;99604.38;5010069;28;20198;-60
2022/05/17 04:55:48;;;;;;;6.13;5.83;;;;;;;22.62;71.84;99616.00;5010127;28;20207;-60
2022/05/17 04:58:15;;;;;;;6.67;6.07;;;;;;;22.70;72.15;99616.28;5013207;28;20219;-59
2022/05/17 05:00:42;;;;;;;7.07;6.43;;;;;;;22.85;72.40;99612.50;5012951;28;20205;-60
2022/05/17 05:03:09;;;;;;;10.03;6.70;;;;;;;23.09;74.29;99603.69;5013609;28;20200;-59
2022/05/17 05:05:37;;;;;;;13.00;6.67;;;;;;;23.32;70.82;99606.16;5013459;28;20212;-60
2022/05/17 05:08:05;;;;;;;6.07;5.47;;;;;;;23.42;68.99;99601.06;5013460;28;20202;-60
2022/05/17 05:10:32;;;;;;;5.60;5.30;;;;;;;23.41;67.62;99607.25;5013366;28;20291;-60
2022/05/17 05:12:59;;;;;;;5.33;5.13;;;;;;;23.33;68.14;99609.59;5013137;28;20213;-59
2022/05/17 05:15:26;;;;;;;9.33;7.07;;;;;;;23.44;69.29;99604.38;5013289;28;20202;-59
2022/05/17 05:17:53;;;;;;;5.70;5.50;;;;;;;23.74;69.38;99617.63;5013257;28;20223;-60
2022/05/17 05:20:20;;;;;;;5.37;5.10;;;;;;;23.99;68.86;99619.91;5013628;28;20198;-60
2022/05/17 05:22:48;;;;;;;5.10;4.90;;;;;;;24.29;67.35;99621.84;5013503;28;20710;-60
2022/05/17 05:25:16;;;;;;;15.47;7.53;;;;;;;24.52;66.11;99625.97;5013335;28;20198;-60
2022/05/17 05:27:43;;;;;;;5.97;4.37;;;;;;;24.69;64.98;99621.09;5007789;28;20214;-60
2022/05/17 05:30:13;;;;;;;4.90;4.67;;;;;;;24.82;61.74;99619.13;5012500;28;20208;-60
2022/05/17 05:32:40;;;;;;;5.60;5.07;;;;;;;24.99;61.56;99627.22;5013132;28;20217;-60
2022/05/17 05:35:08;;;;;;;4.50;4.27;;;;;;;24.97;60.86;99626.53;5013062;28;20198;-60
2022/05/17 05:37:35;;;;;;;3.67;3.57;;;;;;;24.89;58.12;99623.72;5013046;28;20232;-60
2022/05/17 05:40:03;;;;;;;5.03;4.70;;;;;;;24.88;58.37;99622.03;5012901;28;20205;-60
2022/05/17 05:42:30;;;;;;;5.10;4.90;;;;;;;25.04;59.05;99625.00;5013033;28;20206;-60
2022/05/17 05:44:57;;;;;;;5.00;4.70;;;;;;;25.36;61.09;99621.41;5010348;28;20198;-60
2022/05/17 05:47:24;;;;;;;4.53;4.33;;;;;;;25.52;58.24;99616.50;5013193;28;20200;-60
2022/05/17 05:49:51;;;;;;;5.03;4.73;;;;;;;25.78;56.38;99612.38;5013033;28;20602;-60
2022/05/17 05:52:18;;;;;;;4.73;4.37;;;;;;;25.99;57.42;99613.06;5012524;28;20198;-60
2022/05/17 05:54:45;;;;;;;4.80;4.50;;;;;;;26.30;56.20;99623.47;5013606;28;20205;-60
2022/05/17 05:57:14;;;;;;;4.20;4.00;;;;;;;26.34;54.92;99593.28;5013882;28;20221;-60
2022/05/17 05:59:41;;;;;;;4.43;4.20;;;;;;;26.42;53.42;99612.66;5012835;28;20663;-60
2022/05/17 06:02:08;;;;;;;4.73;4.53;;;;;;;26.47;55.16;99599.06;5012682;28;20201;-60
2022/05/17 06:04:36;;;;;;;4.90;4.37;;;;;;;26.67;50.80;99605.94;5012785;28;20217;-60
2022/05/17 06:07:03;;;;;;;4.13;3.93;;;;;;;27.00;51.09;99617.75;5010861;28;20202;-60
2022/05/17 06:09:31;;;;;;;4.00;3.80;;;;;;;27.24;51.72;99615.41;5011711;28;20198;-60
2022/05/17 06:11:58;;;;;;;4.77;4.47;;;;;;;27.46;48.89;99611.59;5012221;28;20213;-60
2022/05/17 06:14:27;;;;;;;11.63;4.53;;;;;;;27.65;49.88;99614.09;5012150;28;20205;-60
2022/05/17 06:16:54;;;;;;;4.57;4.37;;;;;;;27.77;50.20;99607.63;5012453;28;20260;-60
2022/05/17 06:19:22;;;;;;;16.43;4.60;;;;;;;27.82;49.15;99607.19;5012452;28;20590;-61
2022/05/17 06:21:49;;;;;;;9.80;4.83;;;;;;;27.89;50.69;99606.41;5012210;28;20193;-60
2022/05/17 06:24:16;;;;;;;4.03;3.70;;;;;;;28.05;50.04;99614.47;5012231;28;20198;-60
2022/05/17 06:26:43;;;;;;;5.07;4.00;;;;;;;28.11;51.70;99613.06;5010956;28;20233;-60
2022/05/17 06:29:10;;;;;;;5.03;4.63;;;;;;;28.38;51.10;99609.47;5012526;28;20725;-61
2022/05/17 06:31:39;;;;;;;4.03;3.87;;;;;;;28.51;49.45;99615.16;5012467;28;20198;-60
2022/05/17 06:34:06;;;;;;;4.87;4.67;;;;;;;28.73;49.43;99616.47;5012119;28;20209;-60
2022/05/17 06:36:33;;;;;;;4.33;4.13;;;;;;;28.70;49.81;99617.63;5012215;28;20666;-60
2022/05/17 06:39:01;;;;;;;4.80;4.40;;;;;;;28.77;50.54;99609.91;5011613;28;20614;-60
2022/05/17 06:41:27;;;;;;;4.80;4.40;;;;;;;28.95;48.92;99603.56;5029892;28;20201;-61
2022/05/17 06:43:54;;;;;;;4.40;4.20;;;;;;;29.15;47.71;99610.25;5031809;28;20204;-60
2022/05/17 06:46:21;;;;;;;4.50;4.20;;;;;;;29.29;49.00;99603.56;5028302;28;20598;-61
2022/05/17 06:48:49;;;;;;;6.87;4.83;;;;;;;29.55;49.13;99603.47;5011928;28;20301;-60
2022/05/17 06:51:16;;;;;;;3.90;3.70;;;;;;;29.66;45.29;99600.53;5012139;28;20586;-61
2022/05/17 06:53:43;;;;;;;3.50;3.40;;;;;;;29.49;46.10;99594.38;5011804;28;20205;-61
2022/05/17 06:56:11;;;;;;;4.13;3.93;;;;;;;29.50;44.13;99605.78;5011452;28;20229;-61
2022/05/17 06:58:38;;;;;;;4.07;3.80;;;;;;;29.71;43.91;99598.22;5011807;28;20218;-61
2022/05/17 07:01:05;;;;;;;3.23;3.13;;;;;;;29.81;43.86;99598.06;5017388;28;20201;-61
2022/05/17 07:03:32;;;;;;;3.33;3.23;;;;;;;29.62;45.15;99593.91;5022220;28;20208;-61
2022/05/17 07:06:00;;;;;;;3.67;3.47;;;;;;;29.66;45.60;99589.97;5011800;28;20194;-61
2022/05/17 07:08:27;;;;;;;3.57;3.47;;;;;;;29.85;44.41;99587.03;5011358;28;20583;-61
2022/05/17 07:13:38;;;;;;;4.60;4.20;;;;;;;30.26;43.14;99592.28;5013642;28;20213;-61
2022/05/17 07:16:05;;;;;;;5.47;5.20;;;;;;;30.30;41.76;99583.03;5011557;28;20209;-60
2022/05/17 07:18:32;;;;;;;3.97;3.80;;;;;;;30.34;45.42;99579.06;5010975;28;20214;-61
2022/05/17 07:21:00;;;;;;;3.60;3.40;;;;;;;30.48;41.17;99581.03;5009842;28;20208;-60
2022/05/17 07:23:27;;;;;;;3.73;3.63;;;;;;;30.77;44.05;99581.28;5011283;28;20674;-61
2022/05/17 07:25:55;;;;;;;3.93;3.73;;;;;;;30.95;42.33;99583.72;5010550;28;20206;-60
2022/05/17 07:28:23;;;;;;;4.20;4.00;;;;;;;31.17;40.73;99573.22;5010856;28;20209;-61
2022/05/17 07:30:51;;;;;;;3.65;3.40;;;;;;;31.42;40.10;99579.19;5010066;28;20207;-61
2022/05/17 07:33:20;;;;;;;3.83;3.72;;;;;;;31.50;39.12;99581.00;5011281;28;20682;-61
2022/05/17 07:35:47;;;;;;;4.05;3.85;;;;;;;31.51;39.33;99561.44;5011260;28;20202;-61
2022/05/17 07:38:17;;;;;;;3.85;3.50;;;;;;;31.48;39.88;99569.72;5011224;28;20241;-61
2022/05/17 07:40:44;;;;;;;3.95;3.75;;;;;;;31.43;40.83;99562.31;5008338;28;20198;-61
2022/05/17 07:43:12;;;;;;;4.28;3.97;;;;;;;31.31;41.65;99568.19;5011225;28;20202;-61
2022/05/17 07:45:39;;;;;;;3.67;3.58;;;;;;;31.38;41.56;99561.16;5010925;28;20202;-61
2022/05/17 07:48:06;;;;;;;3.63;3.35;;;;;;;31.62;40.19;99566.34;5014422;28;20193;-61
2022/05/17 07:50:33;;;;;;;3.65;3.55;;;;;;;31.81;41.45;99565.03;5030809;28;20209;-61
2022/05/17 07:53:07;;;;;;;4.10;3.80;;;;;;;32.06;41.33;99569.16;5020294;28;20225;-61
2022/05/17 07:55:36;;;;;;;4.28;4.07;;;;;;;32.20;40.37;99553.28;5010632;28;20202;-61
2022/05/17 07:58:03;;;;;;;8.02;4.68;;;;;;;32.40;39.71;99571.34;5018791;28;20663;-61
2022/05/17 08:00:31;;;;;;;4.72;4.53;;;;;;;32.39;38.83;99569.69;5010902;28;20198;-61
2022/05/17 08:02:58;;;;;;;4.20;4.00;;;;;;;32.38;39.48;99560.06;5010784;28;20209;-61
2022/05/17 08:05:25;;;;;;;4.45;4.25;;;;;;;32.44;43.47;99552.19;5010752;28;20233;-61
2022/05/17 08:07:52;;;;;;;4.53;4.32;;;;;;;32.63;39.20;99561.50;5010269;28;20202;-61
2022/05/17 08:10:20;;;;;;;3.92;3.83;;;;;;;32.77;40.01;99558.00;5011006;28;20194;-61
2022/05/17 08:12:48;;;;;;;4.72;4.32;;;;;;;32.92;38.16;99561.47;5010787;28;20590;-61
2022/05/17 08:15:16;;;;;;;4.55;4.35;;;;;;;32.92;37.81;99540.22;5014261;28;20209;-61
2022/05/17 08:17:43;;;;;;;4.40;4.05;;;;;;;33.01;38.00;99549.72;5022373;28;20682;-61
2022/05/17 08:20:10;;;;;;;4.95;4.32;;;;;;;33.08;38.16;99545.31;5023339;28;20210;-61
2022/05/17 08:22:39;;;;;;;4.47;4.15;;;;;;;32.65;38.29;99549.69;5009626;28;20260;-61
2022/05/17 08:27:56;;;;;;;3.78;3.58;;;;;;;32.58;39.75;99534.66;5021225;28;20712;-61
2022/05/17 08:30:25;;;;;;;4.80;4.50;;;;;;;32.90;38.56;99536.09;5030304;28;20202;-61
2022/05/17 08:35:39;;;;;;;4.65;4.35;;;;;;;33.26;38.47;99532.47;5021162;28;20209;-61
2022/05/17 08:38:07;;;;;;;4.55;4.18;;;;;;;33.28;38.75;99538.41;5014269;28;20587;-61
2022/05/17 08:40:39;;;;;;;4.93;4.63;;;;;;;33.47;41.06;99530.84;5014606;28;20206;-61
2022/05/17 08:43:16;;;;;;;4.50;4.10;;;;;;;33.60;37.67;99533.63;5022519;28;20205;-61
2022/05/17 08:45:57;;;;;;;4.07;3.80;;;;;;;33.15;35.79;99532.94;5033955;28;20201;-61
2022/05/17 08:48:29;;;;;;;4.00;3.80;;;;;;;33.02;37.73;99524.78;5033799;28;20193;-61
2022/05/17 08:50:56;;;;;;;4.50;4.30;;;;;;;32.94;41.28;99522.25;5033757;28;20193;-61
2022/05/17 08:53:23;;;;;;;3.88;3.70;;;;;;;32.99;38.83;99519.06;5033718;28;20205;-61
2022/05/17 08:55:52;;;;;;;3.70;3.60;;;;;;;33.16;39.80;99521.31;5033390;28;20206;-61
2022/05/17 08:58:24;;;;;;;4.03;3.83;;;;;;;33.07;37.70;99501.16;5033692;28;20217;-61
2022/05/17 09:00:54;;;;;;;4.75;4.55;;;;;;;33.10;39.19;99514.09;5033715;28;20705;-61
2022/05/17 09:03:36;;;;;;;4.20;3.92;;;;;;;32.99;36.97;99513.75;5033948;28;20665;-61
2022/05/17 09:06:12;;;;;;;3.88;3.75;;;;;;;33.09;38.09;99511.63;5033490;28;20308;-61
2022/05/17 09:08:48;;;;;;;5.38;3.50;;;;;;;33.20;37.18;99511.97;5033880;28;20566;-61
2022/05/17 09:11:21;;;;;;;3.95;3.75;;;;;;;33.12;35.72;99488.16;5033342;28;20220;-61
2022/05/17 09:13:55;;;;;;;4.50;4.10;;;;;;;33.29;38.02;99502.03;5012294;28;20268;-61
2022/05/17 09:16:24;;;;;;;4.25;4.05;;;;;;;33.07;35.60;99490.53;5012746;28;20202;-61
2022/05/17 09:18:51;;;;;;;3.97;3.78;;;;;;;32.97;36.01;99500.63;5011954;28;20297;-61
2022/05/17 09:21:29;;;;;;;4.40;4.10;;;;;;;32.72;36.41;99497.50;5010839;28;20453;-67
2022/05/17 09:23:57;;;;;;;4.60;4.30;;;;;;;33.02;36.47;99500.88;5016922;28;20449;-62
2022/05/17 09:26:24;;;;;;;6.10;4.25;;;;;;;33.36;37.41;99496.78;5010877;28;20452;-63
2022/05/17 09:28:56;;;;;;;5.53;3.58;;;;;;;33.62;35.86;99502.38;5011983;28;20194;-63
2022/05/17 09:31:29;;;;;;;3.97;3.58;;;;;;;33.69;35.36;99484.66;5011470;28;20201;-63
2022/05/17 09:33:59;;;;;;;4.07;3.88;;;;;;;33.68;37.50;99490.97;5011805;28;20228;-63
2022/05/17 09:36:31;;;;;;;4.13;3.90;;;;;;;33.59;35.04;99494.75;5012139;28;20201;-63
2022/05/17 09:38:59;;;;;;;3.67;3.55;;;;;;;33.70;34.68;99491.63;5012040;28;20260;-63
2022/05/17 09:41:31;;;;;;;3.67;3.58;;;;;;;33.96;33.69;99485.69;5011296;28;20582;-63
2022/05/17 09:44:04;;;;;;;5.38;4.88;;;;;;;33.90;35.23;99465.97;5011065;28;20450;-60
2022/05/17 09:46:33;;;;;;;4.60;4.40;;;;;;;33.91;36.04;99472.94;5012404;28;20202;-60
2022/05/17 09:54:41;;;;;;;3.40;3.30;;;;;;;33.41;33.05;99465.16;5010076;28;20221;-63
2022/05/17 10:04:04;;;;;;;3.00;2.80;;;;;;;32.95;35.11;99444.25;5009866;28;20283;-64
2022/05/17 10:06:35;;;;;;;3.60;3.17;;;;;;;32.94;32.97;99453.22;5011680;28;20666;-64
2022/05/17 10:09:04;;;;;;;3.17;2.83;;;;;;;33.10;34.00;99452.16;5011304;28;20209;-64
2022/05/17 10:11:44;;;;;;;2.85;2.75;;;;;;;32.88;32.70;99447.81;5016414;28;20202;-63
2022/05/17 10:14:20;;;;;;;2.65;2.55;;;;;;;33.06;32.59;99441.06;5031944;28;20581;-63
2022/05/17 10:16:50;;;;;;;2.90;2.80;;;;;;;32.92;32.62;99434.00;5032129;28;20713;-64
2022/05/17 10:19:35;;;;;;;3.10;2.88;;;;;;;32.81;32.44;99433.63;5011916;28;20373;-63
2022/05/17 10:22:09;;;;;;;2.95;2.80;;;;;;;32.92;32.92;99415.41;5010978;28;20210;-63
2022/05/17 10:24:44;;;;;;;3.35;3.15;;;;;;;33.32;33.58;99429.06;5011623;28;20212;-64
2022/05/17 10:27:19;;;;;;;3.67;3.25;;;;;;;33.53;37.66;99426.41;5019338;28;20204;-64
2022/05/17 10:29:51;;;;;;;3.63;3.45;;;;;;;33.72;34.54;99431.06;5020865;28;20551;-64
2022/05/17 10:32:26;;;;;;;5.72;3.10;;;;;;;33.10;33.16;99415.81;5027561;28;20211;-64
2022/05/17 10:34:59;;;;;;;3.33;3.22;;;;;;;32.93;33.84;99403.75;5022799;28;20198;-65
2022/05/17 10:37:32;;;;;;;3.28;3.15;;;;;;;32.96;34.46;99403.34;5016796;28;20208;-64
2022/05/17 10:40:05;;;;;;;3.33;3.22;;;;;;;32.92;34.84;99406.59;5013061;28;20221;-64
2022/05/17 10:42:33;;;;;;;2.92;2.83;;;;;;;32.97;34.30;99398.88;5022484;28;20209;-64
2022/05/17 10:45:00;;;;;;;2.50;2.40;;;;;;;33.11;32.89;99403.34;5016006;28;20206;-64
2022/05/17 10:47:47;;;;;;;2.25;2.15;;;;;;;33.15;30.88;99401.97;5017647;28;20198;-64
2022/05/17 10:50:25;;;;;;;2.67;2.22;;;;;;;33.14;29.69;99403.78;5012138;28;20204;-64
2022/05/17 10:53:04;;;;;;;4.22;2.75;;;;;;;33.17;30.14;99381.31;5014983;28;20204;-64
2022/05/17 10:55:38;;;;;;;2.50;2.40;;;;;;;33.44;29.34;99396.50;5020256;28;20206;-64
2022/05/17 10:58:15;;;;;;;2.55;2.35;;;;;;;33.52;28.26;99392.84;5017476;28;20228;-64
2022/05/17 11:00:48;;;;;;;2.63;2.53;;;;;;;33.69;29.49;99391.56;5014107;28;20744;-64
2022/05/17 11:03:46;;;;;;;3.08;2.20;;;;;;;33.41;30.33;99380.09;5015187;28;20205;-63
2022/05/17 11:06:25;;;;;;;2.80;2.58;;;;;;;33.47;31.43;99376.66;5012958;28;20671;-64
2022/05/17 11:08:59;;;;;;;2.20;2.10;;;;;;;33.48;30.56;99370.31;5014339;28;20205;-64
2022/05/17 11:11:59;;;;;;;2.17;2.00;;;;;;;33.48;28.96;99370.31;5015057;28;20201;-63
2022/05/17 11:14:34;;;;;;;2.58;2.38;;;;;;;33.19;28.52;99372.13;5027796;28;20202;-63
2022/05/17 11:17:08;;;;;;;2.20;2.10;;;;;;;32.95;29.06;99369.88;5016365;28;21035;-64
2022/05/17 11:19:43;;;;;;;1.90;1.85;;;;;;;32.81;30.68;99354.81;5021109;28;20217;-63
2022/05/17 11:22:16;;;;;;;2.28;2.17;;;;;;;32.86;30.07;99354.25;5019307;28;20570;-64
2022/05/17 11:25:10;;;;;;;2.75;2.65;;;;;;;33.00;30.72;99356.00;5027602;28;20221;-63
2022/05/17 11:27:58;;;;;;;2.10;2.00;;;;;;;33.12;30.11;99350.00;5011555;28;20198;-64
2022/05/17 11:30:30;;;;;;;2.10;2.00;;;;;;;32.94;29.90;99352.28;5010705;28;20659;-64
2022/05/17 11:33:14;;;;;;;2.63;2.42;;;;;;;33.04;29.77;99342.16;5011614;28;20201;-65
2022/05/17 11:35:49;;;;;;;2.72;2.50;;;;;;;33.05;29.10;99332.34;5003518;28;20205;-64
2022/05/17 11:38:41;;;;;;;2.05;2.00;;;;;;;33.14;29.24;99348.00;5012987;28;20198;-64
2022/05/17 11:41:14;;;;;;;3.60;2.38;;;;;;;33.34;30.68;99332.22;5012216;28;20614;-64
2022/05/17 11:43:45;;;;;;;2.30;2.20;;;;;;;33.26;31.28;99332.34;5019171;28;20205;-65
2022/05/17 11:46:41;;;;;;;2.58;2.47;;;;;;;33.06;28.86;99332.16;5015841;28;20194;-64
2022/05/17 11:49:25;;;;;;;2.42;2.22;;;;;;;33.07;30.06;99331.13;5015018;28;20208;-64
2022/05/17 11:52:23;;;;;;;2.78;2.58;;;;;;;33.23;29.62;99324.75;5018298;28;20201;-65
2022/05/17 11:54:53;;;;;;;2.60;2.50;;;;;;;33.19;29.96;99319.00;5010592;28;20682;-64
2022/05/17 11:58:00;;;;;;;2.30;2.20;;;;;;;32.93;29.58;99317.91;5013317;28;20240;-64
2022/05/17 12:00:45;;;;;;;2.00;1.90;;;;;;;32.63;29.56;99309.28;5010851;28;20678;-63
2022/05/17 12:03:46;;;;;;;2.75;2.55;;;;;;;32.73;30.78;99304.50;5016423;28;20221;-64
2022/05/17 12:06:32;;;;;;;2.80;2.70;;;;;;;32.88;30.55;99310.53;5015690;28;20202;-64
2022/05/17 12:08:59;;;;;;;2.25;2.15;;;;;;;32.66;28.78;99295.63;5024079;28;20709;-65
2022/05/17 12:11:37;;;;;;;2.63;2.53;;;;;;;32.73;30.13;99301.84;5018266;28;20215;-64